createdAt,value
2022-09-03T00:09:56.814Z,100279.03
2022-09-03T00:20:12.735Z,100275.03
2022-09-03T00:30:19.183Z,100270.00
2022-09-03T00:40:27.165Z,100277.88
2022-09-03T00:51:03.751Z,100281.47
2022-09-03T01:12:06.144Z,100283.56
2022-09-03T01:22:24.486Z,100297.41
2022-09-03T01:32:45.191Z,100303.66
2022-09-03T01:42:54.485Z,100308.97
2022-09-03T01:53:18.486Z,100313.47
2022-09-03T02:03:23.041Z,100310.06
2022-09-03T02:13:35.068Z,100322.28
2022-09-03T02:23:40.871Z,100316.31
2022-09-03T02:33:50.924Z,100312.13
2022-09-03T02:44:06.685Z,100309.66
2022-09-03T02:54:09.503Z,100312.28
2022-09-03T03:04:11.086Z,100320.13
2022-09-03T03:14:12.668Z,100313.28
2022-09-03T03:24:14.525Z,100318.47
2022-09-03T03:34:16.375Z,100318.59
2022-09-03T03:44:20.259Z,100333.28
2022-09-03T03:54:22.542Z,100341.97
2022-09-03T04:04:24.285Z,100335.97
2022-09-03T04:14:27.882Z,100350.66
2022-09-03T04:24:29.828Z,100357.38
2022-09-03T04:34:31.646Z,100362.56
2022-09-03T04:44:33.316Z,100363.34
2022-09-03T04:54:36.212Z,100370.94
2022-09-03T05:04:37.842Z,100379.31
2022-09-03T05:14:39.718Z,100374.78
2022-09-03T05:24:41.394Z,100376.97
2022-09-03T05:34:44.077Z,100381.69
2022-09-03T05:44:46.048Z,100376.66
2022-09-03T05:54:49.563Z,100376.84
2022-09-03T06:04:51.272Z,100384.91
2022-09-03T06:14:53.154Z,100391.94
2022-09-03T06:24:55.877Z,100382.22
2022-09-03T06:34:58.858Z,100381.72
2022-09-03T06:45:07.011Z,100370.66
2022-09-03T06:55:22.824Z,100372.69
2022-09-03T07:05:28.739Z,100373.22
2022-09-03T07:15:30.589Z,100375.41
2022-09-03T07:25:33.203Z,100365.00
2022-09-03T07:35:37.313Z,100359.25
2022-09-03T07:45:39.280Z,100368.34
2022-09-03T07:55:45.147Z,100371.28
2022-09-03T08:05:53.955Z,100371.34
2022-09-03T08:15:57.312Z,100373.72
2022-09-03T08:26:02.175Z,100373.09
2022-09-03T08:36:09.711Z,100366.25
2022-09-03T08:46:12.402Z,100376.56
2022-09-03T08:56:24.362Z,100367.19
2022-09-03T09:06:53.576Z,100363.69
2022-09-03T09:17:13.979Z,100350.41
2022-09-03T09:27:19.469Z,100348.53
2022-09-03T09:37:22.183Z,100344.63
2022-09-03T09:47:36.698Z,100350.56
2022-09-03T09:57:39.802Z,100344.31
2022-09-03T10:07:55.742Z,100341.81
2022-09-03T10:18:09.420Z,100345.78
2022-09-03T10:28:13.306Z,100344.16
2022-09-03T10:38:30.146Z,100337.75
2022-09-03T10:49:03.187Z,100332.75
2022-09-03T10:59:28.997Z,100322.53
2022-09-03T11:09:41.984Z,100307.25
2022-09-03T11:19:51.057Z,100308.38
2022-09-03T11:30:07.343Z,100309.03
2022-09-03T11:40:21.928Z,100312.81
2022-09-03T11:50:32.744Z,100313.94
2022-09-03T12:00:38.700Z,100303.03
2022-09-03T12:10:51.383Z,100317.91
2022-09-03T12:20:53.037Z,100315.53
2022-09-03T12:30:54.886Z,100305.50
2022-09-03T13:01:47.953Z,100300.13
2022-09-03T13:11:52.567Z,100294.47
2022-09-03T13:22:17.401Z,100285.09
2022-09-03T13:32:45.217Z,100285.16
2022-09-03T13:42:58.802Z,100285.44
2022-09-03T13:53:07.431Z,100277.78
2022-09-03T14:03:49.424Z,100269.97
2022-09-03T14:14:18.377Z,100273.81
2022-09-03T14:24:26.745Z,100262.31
2022-09-03T14:34:53.222Z,100259.00
2022-09-03T14:45:09.123Z,100245.88
2022-09-03T14:55:31.458Z,100252.59
2022-09-03T15:05:44.698Z,100252.19
2022-09-03T15:16:09.169Z,100258.66
2022-09-03T15:26:31.123Z,100262.19
2022-09-03T15:36:41.461Z,100240.16
2022-09-03T15:47:09.536Z,100247.28
2022-09-03T15:57:28.979Z,100251.53
2022-09-03T16:07:49.157Z,100255.75
2022-09-03T16:18:07.305Z,100254.91
2022-09-03T16:28:35.769Z,100246.44
2022-09-03T16:38:55.533Z,100261.78
2022-09-03T16:49:16.936Z,100260.09
2022-09-03T16:59:42.462Z,100262.16
2022-09-03T17:10:08.158Z,100275.25
2022-09-03T17:20:31.742Z,100286.13
2022-09-03T17:30:58.772Z,100289.06
2022-09-03T17:41:20.747Z,100300.34
2022-09-03T17:51:22.396Z,100307.09
2022-09-03T18:01:31.352Z,100318.06
2022-09-03T18:11:46.949Z,100324.81
2022-09-03T18:22:08.631Z,100334.53
2022-09-03T18:32:29.853Z,100346.41
2022-09-03T18:43:10.343Z,100348.91
2022-09-03T18:53:50.086Z,100353.94
2022-09-03T19:04:40.529Z,100350.63
2022-09-03T19:15:11.012Z,100352.69
2022-09-03T19:25:34.429Z,100348.22
2022-09-03T19:36:10.922Z,100360.59
2022-09-03T19:57:41.486Z,100362.72
2022-09-03T20:08:11.837Z,100375.75
2022-09-03T20:18:35.922Z,100390.75
2022-09-03T20:28:57.021Z,100407.63
2022-09-03T20:39:29.888Z,100410.06
2022-09-03T20:49:38.263Z,100422.56
2022-09-03T20:59:59.506Z,100440.97
2022-09-03T21:10:28.309Z,100438.56
2022-09-03T21:20:51.597Z,100441.03
2022-09-03T21:31:12.666Z,100448.75
2022-09-03T21:41:26.310Z,100444.91
2022-09-03T21:51:31.644Z,100453.19
2022-09-03T22:01:49.743Z,100456.84
2022-09-03T22:11:56.303Z,100457.69
2022-09-03T22:21:59.975Z,100456.88
2022-09-03T22:32:08.024Z,100465.72
2022-09-03T22:42:22.973Z,100462.50
2022-09-03T22:52:45.484Z,100448.88
2022-09-03T23:02:55.192Z,100454.31
2022-09-03T23:13:21.095Z,100460.69
2022-09-03T23:23:31.437Z,100458.44
2022-09-03T23:33:33.124Z,100462.28
2022-09-03T23:44:03.206Z,100472.03
2022-09-03T23:54:24.955Z,100469.44
